Time;durP1;ratioP1;P1;durP2;ratioP2;P2;SDS_P1;SDS_P2;PMS_P1;PMS_P2;Temp;Humidity;BMP_temperature;BMP_pressure;BME280_temperature;BME280_humidity;BME280_pressure;Samples;Min_cycle;Max_cycle;Signal;HPM_P1;HPM_P2
2021/06/12 00:01:41;;;;;;;23.90;11.32;;;;;;;;;;6174559;23;20171;-87
2021/06/12 00:04:46;;;;;;;20.98;11.68;;;;;;;;;;6168212;23;20188;-90
2021/06/12 00:07:52;;;;;;;24.08;11.50;;;;;;;;;;6175381;23;20184;-88
2021/06/12 00:10:57;;;;;;;26.73;12.13;;;;;;;;;;6176195;23;20176;-89
2021/06/12 00:14:01;;;;;;;20.48;11.38;;;;;;;;;;6176766;23;20171;-88
2021/06/12 00:17:06;;;;;;;34.17;11.45;;;;;;;;;;6176019;23;20171;-89
2021/06/12 00:20:13;;;;;;;20.38;11.77;;;;;;;;;;6175060;23;20176;-88
2021/06/12 00:23:18;;;;;;;25.77;12.20;;;;;;;;;;6175642;23;20508;-90
2021/06/12 00:26:22;;;;;;;20.92;12.98;;;;;;;;;;6187613;23;20308;-90
2021/06/12 00:29:27;;;;;;;20.33;12.05;;;;;;;;;;6193903;23;20634;-89
2021/06/12 00:32:31;;;;;;;24.15;12.13;;;;;;;;;;6193835;23;20191;-88
2021/06/12 00:35:38;;;;;;;29.33;12.20;;;;;;;;;;6193241;23;20176;-89
2021/06/12 00:38:42;;;;;;;20.08;12.18;;;;;;;;;;6194542;23;20207;-89
2021/06/12 00:41:47;;;;;;;19.38;11.32;;;;;;;;;;6191798;23;20260;-89
2021/06/12 00:44:53;;;;;;;31.75;12.10;;;;;;;;;;6193157;23;20195;-90
2021/06/12 00:47:58;;;;;;;18.48;11.75;;;;;;;;;;6192791;23;20167;-90
2021/06/12 00:51:05;;;;;;;24.05;12.30;;;;;;;;;;6192934;23;20207;-89
2021/06/12 00:54:09;;;;;;;21.85;11.10;;;;;;;;;;6192969;23;20216;-89
2021/06/12 00:57:14;;;;;;;63.42;12.70;;;;;;;;;;6191935;23;20183;-90
2021/06/12 01:00:21;;;;;;;42.63;12.88;;;;;;;;;;6192505;23;20168;-89
2021/06/12 01:03:27;;;;;;;41.72;12.38;;;;;;;;;;6192745;23;20168;-89
2021/06/12 01:06:33;;;;;;;28.23;12.75;;;;;;;;;;6192704;23;20172;-90
2021/06/12 01:09:37;;;;;;;20.95;11.98;;;;;;;;;;6194423;23;20248;-88
2021/06/12 01:12:50;;;;;;;23.73;12.82;;;;;;;;;;6192710;23;20192;-89
2021/06/12 01:15:56;;;;;;;29.92;12.77;;;;;;;;;;6192858;23;20218;-88
2021/06/12 01:19:02;;;;;;;33.78;12.35;;;;;;;;;;6193319;23;20223;-89
2021/06/12 01:22:10;;;;;;;22.55;12.68;;;;;;;;;;6193024;23;20211;-89
2021/06/12 01:25:19;;;;;;;28.48;12.82;;;;;;;;;;6192832;23;20242;-89
2021/06/12 01:28:36;;;;;;;35.75;13.38;;;;;;;;;;6179358;23;20175;-89
2021/06/12 01:31:43;;;;;;;24.65;13.57;;;;;;;;;;6176177;23;20176;-90
2021/06/12 01:34:49;;;;;;;23.08;12.55;;;;;;;;;;6175533;23;20215;-92
2021/06/12 01:37:54;;;;;;;40.58;14.10;;;;;;;;;;6175268;23;20305;-89
2021/06/12 01:41:01;;;;;;;33.22;13.88;;;;;;;;;;6175145;23;20188;-92
2021/06/12 01:44:07;;;;;;;33.40;13.77;;;;;;;;;;6174691;23;20167;-91
2021/06/12 01:47:13;;;;;;;51.70;12.93;;;;;;;;;;6175892;23;20196;-89
2021/06/12 01:50:18;;;;;;;23.05;12.15;;;;;;;;;;6176033;23;20188;-90
2021/06/12 01:53:30;;;;;;;25.48;12.93;;;;;;;;;;6175613;23;20663;-91
2021/06/12 01:56:35;;;;;;;51.17;13.25;;;;;;;;;;6175985;23;20180;-89
2021/06/12 01:59:39;;;;;;;25.92;12.80;;;;;;;;;;6174339;23;20184;-89
2021/06/12 02:02:46;;;;;;;28.40;11.68;;;;;;;;;;6174493;23;20749;-90
2021/06/12 02:05:51;;;;;;;24.98;10.43;;;;;;;;;;6176098;23;20167;-89
2021/06/12 02:08:56;;;;;;;15.45;8.93;;;;;;;;;;6175837;23;20358;-90
2021/06/12 02:12:01;;;;;;;16.33;9.45;;;;;;;;;;6177309;23;20235;-90
2021/06/12 02:15:07;;;;;;;18.15;9.95;;;;;;;;;;6195445;23;20227;-90
2021/06/12 02:18:28;;;;;;;16.60;10.07;;;;;;;;;;6198929;23;20219;-90
2021/06/12 02:21:35;;;;;;;17.92;9.98;;;;;;;;;;6178312;23;20627;-89
2021/06/12 02:24:40;;;;;;;29.85;10.48;;;;;;;;;;6178100;23;20220;-90
2021/06/12 02:27:46;;;;;;;22.02;9.80;;;;;;;;;;6177396;23;20172;-88
2021/06/12 02:30:51;;;;;;;16.23;10.55;;;;;;;;;;6194246;23;20172;-89
2021/06/12 02:33:56;;;;;;;17.55;9.55;;;;;;;;;;6176182;23;20220;-89
2021/06/12 02:37:04;;;;;;;17.77;11.23;;;;;;;;;;6195353;23;20183;-88
2021/06/12 02:40:09;;;;;;;15.50;9.90;;;;;;;;;;6177165;23;20171;-90
2021/06/12 02:43:14;;;;;;;19.35;10.23;;;;;;;;;;6176883;23;20164;-88
2021/06/12 02:46:27;;;;;;;14.05;9.40;;;;;;;;;;6176572;23;20171;-89
2021/06/12 02:49:34;;;;;;;19.52;9.38;;;;;;;;;;6192841;23;20176;-88
2021/06/12 02:52:41;;;;;;;17.65;9.60;;;;;;;;;;6174837;23;20212;-87
2021/06/12 02:55:48;;;;;;;24.33;9.80;;;;;;;;;;6176092;23;20179;-89
2021/06/12 02:58:54;;;;;;;15.38;8.57;;;;;;;;;;6176033;23;20226;-90
2021/06/12 03:02:00;;;;;;;10.10;6.53;;;;;;;;;;6176463;23;20192;-89
2021/06/12 03:05:05;;;;;;;10.73;7.43;;;;;;;;;;6194917;23;20192;-87
2021/06/12 03:08:12;;;;;;;13.35;7.78;;;;;;;;;;6193337;23;20172;-88
2021/06/12 03:11:17;;;;;;;11.65;8.00;;;;;;;;;;6175725;23;20175;-89
2021/06/12 03:14:23;;;;;;;10.02;7.15;;;;;;;;;;6194748;23;20209;-87
2021/06/12 03:17:29;;;;;;;10.52;7.18;;;;;;;;;;6194603;23;20160;-88
2021/06/12 03:20:34;;;;;;;10.13;6.47;;;;;;;;;;6194221;23;20171;-89
2021/06/12 03:23:43;;;;;;;10.60;6.55;;;;;;;;;;6175519;23;20232;-89
2021/06/12 03:26:48;;;;;;;9.27;6.20;;;;;;;;;;6194350;23;20228;-88
2021/06/12 03:29:53;;;;;;;9.52;6.70;;;;;;;;;;6177325;23;20155;-90
2021/06/12 03:32:58;;;;;;;9.85;6.78;;;;;;;;;;6193986;23;20654;-89
2021/06/12 03:36:03;;;;;;;10.98;6.93;;;;;;;;;;6177197;23;20168;-89
2021/06/12 03:39:10;;;;;;;10.38;6.75;;;;;;;;;;6193951;23;20723;-90
2021/06/12 03:42:15;;;;;;;11.98;6.63;;;;;;;;;;6176428;23;20171;-88
2021/06/12 03:45:19;;;;;;;9.10;5.95;;;;;;;;;;6193337;23;20578;-89
2021/06/12 03:48:24;;;;;;;8.13;5.30;;;;;;;;;;6192572;23;20211;-88
2021/06/12 03:51:29;;;;;;;8.48;5.60;;;;;;;;;;6175405;23;20179;-90
2021/06/12 03:54:36;;;;;;;8.98;5.30;;;;;;;;;;6175002;23;20166;-89
2021/06/12 03:57:42;;;;;;;9.80;5.53;;;;;;;;;;6192517;23;20167;-90
2021/06/12 04:01:16;;;;;;;8.93;5.95;;;;;;;;;;6192727;23;20176;-90
2021/06/12 04:04:24;;;;;;;8.70;6.45;;;;;;;;;;6192267;23;20168;-89
2021/06/12 04:07:29;;;;;;;7.82;6.20;;;;;;;;;;6176022;23;20167;-89
2021/06/12 04:10:35;;;;;;;8.50;6.28;;;;;;;;;;6175527;23;20623;-87
2021/06/12 04:13:39;;;;;;;9.60;5.70;;;;;;;;;;6174428;23;20233;-88
2021/06/12 04:16:43;;;;;;;10.57;6.05;;;;;;;;;;6194396;23;20167;-89
2021/06/12 04:19:48;;;;;;;8.73;6.03;;;;;;;;;;6176432;23;20511;-90
2021/06/12 04:22:52;;;;;;;8.20;6.15;;;;;;;;;;6177728;23;20171;-89
2021/06/12 04:25:58;;;;;;;9.30;7.15;;;;;;;;;;6183132;23;20207;-89
2021/06/12 04:29:02;;;;;;;9.70;6.80;;;;;;;;;;6193023;23;20195;-88
2021/06/12 04:32:07;;;;;;;10.60;7.30;;;;;;;;;;6192050;23;20195;-88
2021/06/12 04:35:13;;;;;;;9.27;6.82;;;;;;;;;;6193507;23;20235;-90
2021/06/12 04:38:18;;;;;;;8.63;6.50;;;;;;;;;;6193255;23;20168;-89
2021/06/12 04:41:23;;;;;;;12.10;6.75;;;;;;;;;;6192993;23;20192;-89
2021/06/12 04:44:28;;;;;;;8.75;6.55;;;;;;;;;;6192632;23;20215;-91
2021/06/12 04:47:32;;;;;;;11.07;6.35;;;;;;;;;;6192449;23;20171;-89
2021/06/12 04:50:38;;;;;;;8.27;6.30;;;;;;;;;;6193043;23;20195;-88
2021/06/12 04:53:43;;;;;;;10.02;7.00;;;;;;;;;;6192236;23;20191;-90
2021/06/12 04:56:49;;;;;;;8.88;6.72;;;;;;;;;;6192904;23;20218;-88
2021/06/12 04:59:54;;;;;;;12.00;6.72;;;;;;;;;;6192667;23;20223;-90
2021/06/12 05:02:58;;;;;;;10.25;6.38;;;;;;;;;;6192310;23;20247;-89
2021/06/12 05:06:03;;;;;;;8.02;5.72;;;;;;;;;;6192797;23;20171;-88
2021/06/12 05:09:07;;;;;;;10.13;6.47;;;;;;;;;;6193301;23;20178;-90
2021/06/12 05:12:13;;;;;;;9.15;6.53;;;;;;;;;;6192245;23;20174;-89
2021/06/12 05:15:20;;;;;;;7.90;5.78;;;;;;;;;;6193119;23;20171;-90
2021/06/12 05:18:31;;;;;;;10.95;6.72;;;;;;;;;;6192966;23;20207;-90
2021/06/12 05:21:37;;;;;;;10.45;7.15;;;;;;;;;;6196305;23;20180;-87
2021/06/12 05:24:42;;;;;;;10.10;6.88;;;;;;;;;;6195420;23;20176;-89
2021/06/12 05:27:48;;;;;;;11.77;7.35;;;;;;;;;;6196326;23;20180;-90
2021/06/12 05:30:53;;;;;;;11.38;7.85;;;;;;;;;;6177634;23;20191;-91
2021/06/12 05:33:58;;;;;;;15.90;9.07;;;;;;;;;;6193483;23;20290;-88
2021/06/12 05:37:02;;;;;;;11.60;8.13;;;;;;;;;;6175586;23;20172;-90
2021/06/12 05:40:08;;;;;;;13.55;8.27;;;;;;;;;;6177530;23;20195;-88
2021/06/12 05:43:14;;;;;;;15.57;8.52;;;;;;;;;;6192511;23;20163;-90
2021/06/12 05:46:19;;;;;;;13.30;7.93;;;;;;;;;;6192788;23;20183;-88
2021/06/12 05:49:24;;;;;;;15.68;7.95;;;;;;;;;;6176345;23;20191;-88
2021/06/12 05:52:31;;;;;;;12.75;7.93;;;;;;;;;;6179917;23;20192;-88
2021/06/12 05:55:35;;;;;;;10.70;6.88;;;;;;;;;;6193264;23;20187;-88
2021/06/12 05:58:41;;;;;;;11.20;7.85;;;;;;;;;;6193559;23;20218;-88
2021/06/12 06:01:50;;;;;;;10.23;7.80;;;;;;;;;;6177242;23;20680;-88
2021/06/12 06:04:55;;;;;;;9.80;7.03;;;;;;;;;;6193997;23;20171;-88
2021/06/12 06:08:00;;;;;;;10.38;7.35;;;;;;;;;;6194714;23;20171;-90
2021/06/12 06:11:05;;;;;;;11.20;7.38;;;;;;;;;;6192848;23;20175;-90
2021/06/12 06:14:11;;;;;;;10.95;7.75;;;;;;;;;;6176071;23;20191;-88
2021/06/12 06:17:15;;;;;;;13.57;6.88;;;;;;;;;;6175643;23;20164;-88
2021/06/12 06:20:20;;;;;;;11.30;8.27;;;;;;;;;;6195177;23;20172;-88
2021/06/12 06:23:25;;;;;;;12.93;8.48;;;;;;;;;;6176087;23;20495;-89
2021/06/12 06:26:31;;;;;;;12.63;8.27;;;;;;;;;;6189269;23;20638;-89
2021/06/12 06:29:37;;;;;;;10.60;7.57;;;;;;;;;;6192434;23;20216;-90
2021/06/12 06:32:42;;;;;;;11.75;7.32;;;;;;;;;;6192591;23;20192;-89
2021/06/12 06:35:47;;;;;;;9.93;6.80;;;;;;;;;;6197501;23;20224;-90
2021/06/12 06:38:51;;;;;;;8.98;6.70;;;;;;;;;;6193931;23;20175;-89
2021/06/12 06:41:56;;;;;;;10.65;6.85;;;;;;;;;;6193102;23;20171;-89
2021/06/12 06:45:01;;;;;;;9.60;6.65;;;;;;;;;;6193639;23;20187;-91
2021/06/12 06:48:06;;;;;;;8.88;6.65;;;;;;;;;;6193417;23;20171;-90
2021/06/12 06:51:11;;;;;;;14.93;7.00;;;;;;;;;;6193924;23;20191;-89
2021/06/12 06:54:15;;;;;;;12.43;6.78;;;;;;;;;;6194449;23;20215;-90
2021/06/12 06:57:21;;;;;;;10.88;7.18;;;;;;;;;;6195634;23;20212;-88
2021/06/12 07:00:27;;;;;;;12.40;7.43;;;;;;;;;;6194824;23;20171;-91
2021/06/12 07:03:32;;;;;;;9.95;7.05;;;;;;;;;;6193752;23;20167;-87
2021/06/12 07:06:36;;;;;;;12.45;7.05;;;;;;;;;;6193646;23;20171;-89
2021/06/12 07:09:41;;;;;;;10.60;7.38;;;;;;;;;;6193780;23;20167;-89
2021/06/12 07:12:46;;;;;;;10.52;7.45;;;;;;;;;;6192942;23;20214;-90
2021/06/12 07:15:52;;;;;;;12.65;8.30;;;;;;;;;;6192689;23;20172;-90
2021/06/12 07:18:57;;;;;;;11.73;8.00;;;;;;;;;;6194687;23;20215;-89
2021/06/12 07:22:02;;;;;;;10.70;7.65;;;;;;;;;;6194373;23;20191;-90
2021/06/12 07:25:07;;;;;;;12.05;8.05;;;;;;;;;;6195353;23;20186;-89
2021/06/12 07:28:12;;;;;;;11.95;7.72;;;;;;;;;;6176453;23;20172;-91
2021/06/12 07:31:19;;;;;;;10.75;7.57;;;;;;;;;;6179226;23;20240;-91
2021/06/12 07:34:24;;;;;;;13.27;8.00;;;;;;;;;;6195292;23;20198;-92
2021/06/12 07:37:28;;;;;;;12.10;8.40;;;;;;;;;;6176811;23;20239;-91
2021/06/12 07:40:33;;;;;;;14.15;8.27;;;;;;;;;;6176773;23;20506;-91
2021/06/12 07:43:37;;;;;;;11.63;7.32;;;;;;;;;;6175799;23;20172;-91
2021/06/12 07:46:42;;;;;;;14.07;8.20;;;;;;;;;;6192894;23;20211;-91
2021/06/12 07:49:47;;;;;;;9.00;7.30;;;;;;;;;;6175600;23;20172;-91
2021/06/12 07:52:52;;;;;;;12.43;7.75;;;;;;;;;;6176805;23;20283;-90
2021/06/12 07:55:57;;;;;;;13.98;8.10;;;;;;;;;;6175629;23;20168;-91
2021/06/12 07:59:02;;;;;;;11.20;7.68;;;;;;;;;;6178669;23;20188;-90
2021/06/12 08:02:08;;;;;;;14.60;8.02;;;;;;;;;;6177180;23;20247;-91
2021/06/12 08:05:12;;;;;;;15.10;7.78;;;;;;;;;;6193620;23;20231;-91
2021/06/12 08:08:19;;;;;;;11.95;8.32;;;;;;;;;;6193746;23;20168;-92
2021/06/12 08:11:24;;;;;;;13.98;9.00;;;;;;;;;;6193821;23;20600;-90
2021/06/12 08:14:30;;;;;;;16.50;10.60;;;;;;;;;;6176963;23;20267;-91
2021/06/12 08:17:36;;;;;;;12.13;8.95;;;;;;;;;;6181459;23;20252;-87
2021/06/12 08:20:41;;;;;;;16.52;9.00;;;;;;;;;;6198899;23;20179;-90
2021/06/12 08:23:46;;;;;;;11.45;8.38;;;;;;;;;;6163762;23;20498;-92
2021/06/12 08:26:51;;;;;;;12.40;8.70;;;;;;;;;;6195612;23;20184;-92
2021/06/12 08:29:56;;;;;;;13.27;9.20;;;;;;;;;;6178758;23;20175;-90
2021/06/12 08:33:02;;;;;;;11.40;8.43;;;;;;;;;;6195450;23;20195;-93
2021/06/12 08:36:07;;;;;;;15.75;9.18;;;;;;;;;;6178439;23;20171;-92
2021/06/12 08:39:13;;;;;;;13.90;9.52;;;;;;;;;;6182583;23;20167;-89
2021/06/12 08:42:25;;;;;;;11.30;8.85;;;;;;;;;;6199333;23;20221;-91
2021/06/12 08:45:30;;;;;;;12.10;9.10;;;;;;;;;;6181818;23;20221;-89
2021/06/12 08:48:36;;;;;;;13.13;10.18;;;;;;;;;;6181373;23;20184;-91
2021/06/12 08:51:42;;;;;;;11.75;9.20;;;;;;;;;;6183264;23;20155;-89
2021/06/12 08:54:51;;;;;;;15.55;10.00;;;;;;;;;;6200262;23;20524;-91
2021/06/12 08:57:56;;;;;;;16.33;9.45;;;;;;;;;;6182264;23;20223;-91
2021/06/12 09:01:05;;;;;;;14.82;10.52;;;;;;;;;;6199191;23;20188;-91
2021/06/12 09:04:26;;;;;;;13.93;10.07;;;;;;;;;;6181971;23;20171;-88
2021/06/12 09:07:34;;;;;;;19.48;12.30;;;;;;;;;;6181681;23;20168;-89
2021/06/12 09:10:47;;;;;;;19.10;10.85;;;;;;;;;;6182157;23;20175;-90
2021/06/12 09:13:53;;;;;;;18.75;12.07;;;;;;;;;;6180846;23;20234;-89
2021/06/12 09:16:58;;;;;;;18.95;11.02;;;;;;;;;;6181525;23;20186;-88
2021/06/12 09:20:08;;;;;;;15.07;11.45;;;;;;;;;;6183090;23;20228;-87
2021/06/12 09:23:16;;;;;;;18.73;11.70;;;;;;;;;;6185209;23;20659;-89
2021/06/12 09:26:21;;;;;;;15.40;12.02;;;;;;;;;;6192238;23;20288;-90
2021/06/12 09:29:34;;;;;;;15.73;12.15;;;;;;;;;;6198822;23;20224;-91
2021/06/12 09:32:45;;;;;;;23.25;13.52;;;;;;;;;;6196664;23;20175;-89
2021/06/12 09:35:51;;;;;;;17.58;12.57;;;;;;;;;;6195814;23;20171;-88
2021/06/12 09:39:05;;;;;;;20.95;13.02;;;;;;;;;;6196880;23;20171;-88
2021/06/12 09:42:09;;;;;;;19.17;11.98;;;;;;;;;;6195844;23;20283;-88
2021/06/12 09:45:15;;;;;;;15.82;11.93;;;;;;;;;;6197164;23;20630;-90
2021/06/12 09:48:22;;;;;;;21.67;15.43;;;;;;;;;;6196399;23;20175;-89
2021/06/12 09:51:27;;;;;;;15.15;11.60;;;;;;;;;;6195860;23;20170;-91
2021/06/12 09:54:40;;;;;;;15.93;12.38;;;;;;;;;;6195266;23;20263;-90
2021/06/12 09:57:50;;;;;;;19.90;13.30;;;;;;;;;;6198458;23;20195;-91
2021/06/12 10:00:54;;;;;;;15.48;12.52;;;;;;;;;;6194888;23;20219;-92
2021/06/12 10:04:09;;;;;;;19.13;12.95;;;;;;;;;;6197968;23;20178;-90
2021/06/12 10:07:15;;;;;;;17.33;12.20;;;;;;;;;;6198302;23;20183;-92
2021/06/12 10:10:20;;;;;;;19.50;11.82;;;;;;;;;;6197518;23;20207;-90
2021/06/12 10:13:24;;;;;;;17.83;12.63;;;;;;;;;;6196483;23;20195;-90
2021/06/12 10:16:30;;;;;;;17.55;12.43;;;;;;;;;;6197506;23;20166;-90
2021/06/12 10:19:35;;;;;;;16.42;11.88;;;;;;;;;;6198464;23;20175;-89
2021/06/12 10:22:44;;;;;;;16.48;12.65;;;;;;;;;;6197389;23;20175;-91
2021/06/12 10:25:50;;;;;;;17.88;12.52;;;;;;;;;;6196645;23;20527;-88
2021/06/12 10:28:56;;;;;;;19.13;11.48;;;;;;;;;;6198540;23;20171;-91
2021/06/12 10:32:02;;;;;;;19.80;11.75;;;;;;;;;;6195970;23;20549;-90
2021/06/12 10:35:09;;;;;;;19.13;11.75;;;;;;;;;;6194398;23;20251;-90
2021/06/12 10:38:16;;;;;;;13.05;9.57;;;;;;;;;;6194451;23;20658;-92
2021/06/12 10:41:21;;;;;;;11.30;7.88;;;;;;;;;;6193750;23;20175;-90
2021/06/12 10:44:27;;;;;;;13.00;7.20;;;;;;;;;;6193666;23;20254;-91
2021/06/12 10:47:39;;;;;;;7.80;6.80;;;;;;;;;;6194837;23;20183;-91
2021/06/12 10:50:45;;;;;;;8.38;6.43;;;;;;;;;;6194808;23;20503;-90
2021/06/12 10:54:11;;;;;;;7.35;5.60;;;;;;;;;;6193815;23;20206;-89
2021/06/12 10:57:17;;;;;;;7.95;6.07;;;;;;;;;;6194406;23;20499;-89
2021/06/12 11:00:23;;;;;;;8.30;5.60;;;;;;;;;;6193015;23;20203;-89
2021/06/12 11:03:49;;;;;;;7.05;5.18;;;;;;;;;;6192607;23;20175;-89
2021/06/12 11:06:55;;;;;;;8.05;5.57;;;;;;;;;;6195399;23;20282;-90
2021/06/12 11:10:16;;;;;;;7.53;5.30;;;;;;;;;;6196011;23;20175;-91
2021/06/12 11:13:23;;;;;;;9.35;4.75;;;;;;;;;;6193910;23;20203;-90
2021/06/12 11:16:28;;;;;;;7.97;4.28;;;;;;;;;;6195910;23;20171;-89
2021/06/12 11:19:33;;;;;;;10.55;4.72;;;;;;;;;;6195529;23;20175;-93
2021/06/12 11:22:38;;;;;;;7.03;4.03;;;;;;;;;;6194383;23;20175;-88
2021/06/12 11:25:48;;;;;;;4.72;4.22;;;;;;;;;;6196115;23;20190;-89
2021/06/12 11:29:07;;;;;;;8.75;4.65;;;;;;;;;;6195353;23;20175;-89
2021/06/12 11:32:26;;;;;;;4.70;3.72;;;;;;;;;;6193151;23;20195;-90
2021/06/12 11:35:43;;;;;;;6.35;4.32;;;;;;;;;;6167521;23;20157;-88
2021/06/12 11:38:50;;;;;;;4.97;4.18;;;;;;;;;;6164886;23;20171;-89
2021/06/12 11:41:57;;;;;;;6.05;4.03;;;;;;;;;;6164632;23;20196;-87
2021/06/12 11:45:13;;;;;;;4.72;3.60;;;;;;;;;;6168095;23;20220;-89
2021/06/12 11:48:18;;;;;;;6.60;4.10;;;;;;;;;;6164704;23;20201;-91
2021/06/12 11:51:27;;;;;;;6.70;4.03;;;;;;;;;;6164228;23;20507;-89
2021/06/12 11:54:32;;;;;;;8.80;4.57;;;;;;;;;;6165410;23;20192;-90
2021/06/12 11:57:41;;;;;;;9.25;4.45;;;;;;;;;;6168066;23;20675;-91
2021/06/12 12:00:47;;;;;;;5.72;4.57;;;;;;;;;;6168255;23;20216;-89
2021/06/12 12:03:52;;;;;;;8.50;4.40;;;;;;;;;;6169692;23;20216;-88
2021/06/12 12:06:58;;;;;;;6.57;4.70;;;;;;;;;;6165935;23;20168;-91
2021/06/12 12:10:05;;;;;;;4.93;4.43;;;;;;;;;;6165645;23;20187;-91
2021/06/12 12:13:23;;;;;;;6.78;4.90;;;;;;;;;;6163311;23;20216;-91
2021/06/12 12:16:28;;;;;;;8.43;4.57;;;;;;;;;;6163059;23;20173;-88
2021/06/12 12:19:33;;;;;;;5.30;4.80;;;;;;;;;;6165494;23;20172;-92
2021/06/12 12:22:40;;;;;;;7.30;5.20;;;;;;;;;;6166621;23;20175;-88
2021/06/12 12:25:45;;;;;;;7.80;5.13;;;;;;;;;;6164369;23;20188;-91
2021/06/12 12:28:54;;;;;;;8.23;4.80;;;;;;;;;;6148157;23;20173;-88
2021/06/12 12:32:00;;;;;;;6.68;4.35;;;;;;;;;;6147211;23;20177;-89
2021/06/12 12:35:10;;;;;;;7.35;5.20;;;;;;;;;;6166770;23;20266;-89
2021/06/12 12:38:18;;;;;;;7.32;5.47;;;;;;;;;;6165159;23;20224;-88
2021/06/12 12:41:23;;;;;;;10.95;6.05;;;;;;;;;;6166513;23;20168;-89
2021/06/12 12:44:29;;;;;;;9.90;7.13;;;;;;;;;;6166107;23;20168;-87
2021/06/12 12:47:34;;;;;;;13.20;6.03;;;;;;;;;;6148546;23;20220;-89
2021/06/12 12:50:39;;;;;;;7.53;5.43;;;;;;;;;;6148352;23;20297;-90
2021/06/12 12:53:45;;;;;;;8.13;4.43;;;;;;;;;;6147588;23;20195;-90
2021/06/12 12:56:51;;;;;;;9.85;5.82;;;;;;;;;;6145190;23;20192;-88
2021/06/12 13:00:01;;;;;;;10.85;6.25;;;;;;;;;;6164751;23;20184;-90
2021/06/12 13:03:06;;;;;;;10.07;6.15;;;;;;;;;;6166889;23;20683;-90
2021/06/12 13:06:29;;;;;;;10.27;6.10;;;;;;;;;;6165943;23;20172;-88
2021/06/12 13:09:50;;;;;;;11.60;5.50;;;;;;;;;;6149805;23;20495;-89
2021/06/12 13:12:57;;;;;;;8.38;4.75;;;;;;;;;;6149313;23;20208;-91
2021/06/12 13:16:01;;;;;;;6.75;4.68;;;;;;;;;;6146963;23;20213;-87
2021/06/12 13:19:15;;;;;;;6.32;4.72;;;;;;;;;;6163976;23;20240;-88
2021/06/12 13:22:28;;;;;;;5.43;4.22;;;;;;;;;;6146146;23;20188;-89
2021/06/12 13:25:57;;;;;;;6.15;3.90;;;;;;;;;;6149365;23;20192;-90
2021/06/12 13:29:22;;;;;;;6.72;4.72;;;;;;;;;;6166230;23;20220;-91
2021/06/12 13:32:28;;;;;;;7.75;5.00;;;;;;;;;;6165375;23;20156;-89
2021/06/12 13:35:33;;;;;;;9.48;5.00;;;;;;;;;;6163704;23;20238;-90
2021/06/12 13:38:40;;;;;;;7.03;4.15;;;;;;;;;;6164106;23;20628;-89
2021/06/12 13:41:45;;;;;;;8.57;4.40;;;;;;;;;;6166157;23;20617;-88
2021/06/12 13:45:11;;;;;;;6.25;4.07;;;;;;;;;;6166689;23;20189;-90
2021/06/12 13:48:17;;;;;;;5.78;4.18;;;;;;;;;;6166437;23;20168;-92
2021/06/12 13:51:22;;;;;;;5.05;3.58;;;;;;;;;;6167601;23;20177;-89
2021/06/12 13:54:31;;;;;;;6.13;3.88;;;;;;;;;;6165029;23;20241;-89
2021/06/12 13:57:36;;;;;;;7.20;4.40;;;;;;;;;;6165101;23;20176;-89
2021/06/12 14:00:40;;;;;;;6.55;3.65;;;;;;;;;;6162819;23;20189;-88
2021/06/12 14:03:47;;;;;;;9.25;4.35;;;;;;;;;;6163942;23;20616;-87
2021/06/12 14:06:51;;;;;;;6.75;4.57;;;;;;;;;;6163572;23;20236;-90
2021/06/12 14:09:56;;;;;;;5.28;4.20;;;;;;;;;;6165590;23;20176;-90
2021/06/12 14:13:00;;;;;;;6.72;4.00;;;;;;;;;;6164526;23;20176;-89
2021/06/12 14:16:05;;;;;;;10.13;4.80;;;;;;;;;;6169975;23;20172;-90
2021/06/12 14:19:11;;;;;;;7.93;4.68;;;;;;;;;;6166474;23;20179;-90
2021/06/12 14:22:16;;;;;;;5.90;4.40;;;;;;;;;;6164504;23;20168;-91
2021/06/12 14:25:20;;;;;;;9.68;4.85;;;;;;;;;;6164743;23;20192;-90
2021/06/12 14:28:27;;;;;;;9.57;4.80;;;;;;;;;;6166729;23;20252;-90
2021/06/12 14:31:32;;;;;;;6.20;4.75;;;;;;;;;;6147786;23;20607;-88
2021/06/12 14:34:39;;;;;;;6.72;4.40;;;;;;;;;;6146681;23;20216;-88
2021/06/12 14:37:43;;;;;;;10.32;4.57;;;;;;;;;;6147261;23;20172;-92
2021/06/12 14:40:47;;;;;;;6.35;4.30;;;;;;;;;;6165281;23;20172;-90
2021/06/12 14:43:52;;;;;;;14.35;5.10;;;;;;;;;;6147103;23;20260;-88
2021/06/12 14:46:58;;;;;;;8.85;5.13;;;;;;;;;;6166320;23;20181;-90
2021/06/12 14:50:06;;;;;;;8.20;5.03;;;;;;;;;;6164574;23;20173;-89
2021/06/12 14:53:10;;;;;;;6.65;4.60;;;;;;;;;;6146060;23;20204;-89
2021/06/12 14:56:15;;;;;;;7.75;5.15;;;;;;;;;;6146624;23;20173;-89
2021/06/12 14:59:20;;;;;;;7.82;5.15;;;;;;;;;;6164646;23;20192;-89
2021/06/12 15:02:24;;;;;;;8.52;5.00;;;;;;;;;;6163035;23;20228;-90
2021/06/12 15:05:30;;;;;;;9.20;5.38;;;;;;;;;;6163140;23;20172;-91
2021/06/12 15:08:35;;;;;;;11.35;5.45;;;;;;;;;;6146910;23;20619;-89
2021/06/12 15:11:39;;;;;;;9.38;5.50;;;;;;;;;;6161713;23;20168;-90
2021/06/12 15:14:44;;;;;;;8.52;5.57;;;;;;;;;;6145712;23;20188;-91
2021/06/12 15:17:50;;;;;;;8.20;4.88;;;;;;;;;;6164425;23;20176;-91
2021/06/12 15:20:56;;;;;;;7.05;5.10;;;;;;;;;;6146515;23;20488;-90
2021/06/12 15:24:00;;;;;;;6.15;4.90;;;;;;;;;;6164624;23;20196;-92
2021/06/12 15:27:05;;;;;;;7.90;4.85;;;;;;;;;;6166114;23;20176;-92
2021/06/12 15:30:11;;;;;;;9.73;5.18;;;;;;;;;;6149970;23;20177;-92
2021/06/12 15:33:16;;;;;;;6.80;4.82;;;;;;;;;;6149567;23;20181;-91
2021/06/12 15:36:22;;;;;;;5.72;4.45;;;;;;;;;;6150311;23;20172;-91
2021/06/12 15:39:27;;;;;;;7.10;4.63;;;;;;;;;;6167658;23;20184;-90
2021/06/12 15:42:31;;;;;;;11.85;6.85;;;;;;;;;;6149872;23;20180;-91
2021/06/12 15:45:38;;;;;;;12.15;5.68;;;;;;;;;;6151012;23;20165;-92
2021/06/12 15:48:43;;;;;;;9.38;5.32;;;;;;;;;;6169108;23;20172;-92
2021/06/12 15:51:50;;;;;;;9.27;4.90;;;;;;;;;;6152367;23;20237;-91
2021/06/12 15:54:55;;;;;;;8.35;4.45;;;;;;;;;;6149983;23;20200;-92
2021/06/12 16:01:26;;;;;;;8.00;4.53;;;;;;;;;;6154413;23;20268;-92
2021/06/12 16:04:31;;;;;;;7.68;4.20;;;;;;;;;;6164507;23;20252;-93
2021/06/12 16:07:37;;;;;;;6.95;4.25;;;;;;;;;;6165852;23;20188;-92
2021/06/12 16:10:42;;;;;;;6.63;4.25;;;;;;;;;;6148430;23;20216;-91
2021/06/12 16:13:48;;;;;;;10.93;4.85;;;;;;;;;;6148149;23;20192;-92
2021/06/12 16:16:54;;;;;;;7.22;4.63;;;;;;;;;;6170101;23;20254;-91
2021/06/12 16:19:58;;;;;;;6.10;4.35;;;;;;;;;;6155017;23;20172;-92
2021/06/12 16:23:05;;;;;;;7.13;5.00;;;;;;;;;;6154192;23;20490;-91
2021/06/12 16:26:09;;;;;;;7.70;4.70;;;;;;;;;;6167003;23;20192;-91
2021/06/12 16:29:22;;;;;;;6.07;4.40;;;;;;;;;;6148536;23;20224;-91
2021/06/12 16:32:26;;;;;;;6.05;4.55;;;;;;;;;;6149124;23;20168;-91
2021/06/12 16:35:31;;;;;;;9.30;4.50;;;;;;;;;;6150247;23;20196;-91
2021/06/12 16:38:38;;;;;;;5.93;4.30;;;;;;;;;;6166080;23;20619;-91
2021/06/12 16:41:42;;;;;;;6.53;4.47;;;;;;;;;;6156011;23;20176;-92
2021/06/12 16:44:49;;;;;;;6.07;5.00;;;;;;;;;;6152196;23;20599;-90
2021/06/12 16:47:55;;;;;;;7.28;5.00;;;;;;;;;;6149832;23;20552;-89
2021/06/12 16:50:59;;;;;;;6.40;4.53;;;;;;;;;;6150261;23;20173;-91
2021/06/12 16:54:15;;;;;;;9.70;4.63;;;;;;;;;;6148558;23;20208;-91
2021/06/12 16:57:30;;;;;;;5.18;3.80;;;;;;;;;;6151124;23;20181;-89
2021/06/12 17:00:36;;;;;;;6.97;3.90;;;;;;;;;;6151604;23;20541;-92
2021/06/12 17:03:41;;;;;;;5.60;3.88;;;;;;;;;;6150353;23;20586;-91
2021/06/12 17:06:48;;;;;;;7.35;3.67;;;;;;;;;;6152442;23;20200;-93
2021/06/12 17:09:59;;;;;;;7.57;3.60;;;;;;;;;;6164967;23;20241;-90
2021/06/12 17:13:03;;;;;;;4.78;3.60;;;;;;;;;;6149628;23;20172;-91
2021/06/12 17:16:08;;;;;;;5.97;3.35;;;;;;;;;;6148335;23;20554;-91
2021/06/12 17:19:13;;;;;;;4.15;3.17;;;;;;;;;;6149458;23;20176;-91
2021/06/12 17:22:18;;;;;;;8.65;3.25;;;;;;;;;;6150601;23;20181;-92
2021/06/12 17:25:24;;;;;;;5.78;2.85;;;;;;;;;;6149307;23;20515;-91
2021/06/12 17:28:31;;;;;;;3.63;2.58;;;;;;;;;;6149434;23;20193;-91
2021/06/12 17:31:36;;;;;;;3.13;2.50;;;;;;;;;;6150079;23;20173;-90
2021/06/12 17:34:43;;;;;;;6.03;2.83;;;;;;;;;;6148674;23;20220;-92
2021/06/12 17:37:47;;;;;;;5.78;2.83;;;;;;;;;;6166574;23;20172;-92
2021/06/12 17:40:53;;;;;;;8.80;3.42;;;;;;;;;;6149038;23;20660;-92
2021/06/12 17:43:58;;;;;;;4.47;2.85;;;;;;;;;;6167142;23;20153;-92
2021/06/12 17:47:03;;;;;;;4.45;3.00;;;;;;;;;;6151811;23;20264;-91
2021/06/12 17:50:09;;;;;;;7.50;2.88;;;;;;;;;;6150722;23;20246;-91
2021/06/12 17:53:13;;;;;;;6.60;2.80;;;;;;;;;;6150918;23;20175;-93
2021/06/12 17:56:20;;;;;;;5.13;2.78;;;;;;;;;;6150880;23;20192;-92
2021/06/12 17:59:24;;;;;;;5.15;2.53;;;;;;;;;;6150607;23;20196;-92
2021/06/12 18:02:30;;;;;;;5.25;2.95;;;;;;;;;;6149035;23;20631;-92
2021/06/12 18:05:35;;;;;;;6.70;2.67;;;;;;;;;;6150871;23;20169;-91
2021/06/12 18:08:41;;;;;;;5.38;2.63;;;;;;;;;;6167907;23;20222;-93
2021/06/12 18:11:48;;;;;;;6.35;3.13;;;;;;;;;;6151337;23;20176;-92
2021/06/12 18:14:52;;;;;;;7.13;3.75;;;;;;;;;;6168729;23;20192;-91
2021/06/12 18:17:57;;;;;;;4.65;2.63;;;;;;;;;;6150039;23;20168;-91
2021/06/12 18:24:21;;;;;;;3.72;2.53;;;;;;;;;;6156905;23;20571;-90
2021/06/12 18:27:27;;;;;;;10.15;2.90;;;;;;;;;;6172057;23;20157;-91
2021/06/12 18:30:32;;;;;;;5.65;3.15;;;;;;;;;;6154589;23;20172;-91
2021/06/12 18:33:36;;;;;;;4.82;2.70;;;;;;;;;;6166461;23;20173;-93